Time;durP1;ratioP1;P1;durP2;ratioP2;P2;SDS_P1;SDS_P2;PMS_P1;PMS_P2;Temp;Humidity;BMP_temperature;BMP_pressure;BME280_temperature;BME280_humidity;BME280_pressure;Samples;Min_cycle;Max_cycle;Signal;HPM_P1;HPM_P2
2023/10/11 00:00:44;;;;;;;;;;;23.90;99.90;;;;;;5112764;28;19911;-72
2023/10/11 00:05:55;;;;;;;;;;;23.80;99.40;;;;;;5108774;28;20407;-72
2023/10/11 00:08:38;;;;;;;;;;;23.90;99.50;;;;;;5118507;27;20017;-72
2023/10/11 00:11:07;;;;;;;;;;;24.00;98.80;;;;;;5112842;28;19999;-70
2023/10/11 00:13:35;;;;;;;;;;;24.30;98.90;;;;;;5112216;28;19964;-71
2023/10/11 00:16:09;;;;;;;;;;;24.30;98.70;;;;;;5112902;28;19912;-70
2023/10/11 00:18:36;;;;;;;;;;;24.50;98.10;;;;;;5112228;28;19912;-68
2023/10/11 00:21:10;;;;;;;;;;;24.30;97.80;;;;;;5096655;28;20330;-69
2023/10/11 00:23:38;;;;;;;;;;;24.30;98.40;;;;;;5112508;28;19912;-70
2023/10/11 00:26:06;;;;;;;;;;;24.30;98.40;;;;;;5115001;27;19916;-71
2023/10/11 00:28:33;;;;;;;;;;;24.20;98.60;;;;;;5101572;28;19961;-70
2023/10/11 00:31:01;;;;;;;;;;;24.10;98.70;;;;;;5107168;28;19908;-68
2023/10/11 00:33:28;;;;;;;;;;;24.20;98.90;;;;;;5094724;28;19920;-73
2023/10/11 00:35:55;;;;;;;;;;;24.30;98.30;;;;;;5112077;28;20269;-72
2023/10/11 00:38:29;;;;;;;;;;;24.30;99.10;;;;;;5106238;28;20325;-73
2023/10/11 00:43:38;;;;;;;;;;;24.60;99.10;;;;;;5111812;28;19907;-70
2023/10/11 00:46:08;;;;;;;;;;;24.90;98.80;;;;;;5112180;28;19999;-69
2023/10/11 00:51:32;;;;;;;;;;;25.30;97.40;;;;;;5112076;28;20389;-68
2023/10/11 00:54:04;;;;;;;;;;;25.50;96.80;;;;;;5111575;28;20018;-68
2023/10/11 00:56:34;;;;;;;;;;;25.50;96.60;;;;;;5103845;28;19919;-71
2023/10/11 00:59:10;;;;;;;;;;;25.60;96.50;;;;;;5102494;28;20295;-66
2023/10/11 01:01:37;;;;;;;;;;;25.80;96.10;;;;;;5103264;28;19911;-67
2023/10/11 01:04:08;;;;;;;;;;;26.00;95.80;;;;;;5092767;28;20444;-73
2023/10/11 01:06:35;;;;;;;;;;;26.10;95.80;;;;;;5110958;28;20374;-73
2023/10/11 01:09:17;;;;;;;;;;;26.10;95.40;;;;;;5099259;28;19959;-71
2023/10/11 01:11:47;;;;;;;;;;;26.10;95.30;;;;;;5109170;28;19915;-73
2023/10/11 01:14:14;;;;;;;;;;;26.20;95.10;;;;;;5111053;28;20019;-72
2023/10/11 01:16:41;;;;;;;;;;;26.10;94.60;;;;;;5111020;28;19908;-68
2023/10/11 01:19:11;;;;;;;;;;;26.10;94.80;;;;;;5105526;28;19918;-69
2023/10/11 01:21:38;;;;;;;;;;;26.30;95.30;;;;;;5110447;28;19915;-71
2023/10/11 01:24:08;;;;;;;;;;;26.40;94.70;;;;;;5106272;28;19957;-69
2023/10/11 01:26:35;;;;;;;;;;;26.40;94.40;;;;;;5092337;28;20380;-68
2023/10/11 01:29:02;;;;;;;;;;;26.60;94.40;;;;;;5111244;28;19965;-71
2023/10/11 01:31:33;;;;;;;;;;;26.30;94.40;;;;;;5098148;28;19939;-70
2023/10/11 01:33:59;;;;;;;;;;;26.60;95.50;;;;;;5106741;28;19927;-68
2023/10/11 01:36:26;;;;;;;;;;;26.70;95.80;;;;;;5111239;28;19908;-68
2023/10/11 01:38:53;;;;;;;;;;;26.90;94.80;;;;;;5100879;28;19908;-73
2023/10/11 01:41:29;;;;;;;;;;;26.90;93.90;;;;;;5101289;28;19918;-71
2023/10/11 01:43:56;;;;;;;;;;;27.10;94.80;;;;;;5106783;28;19919;-71
2023/10/11 01:46:34;;;;;;;;;;;27.20;95.30;;;;;;5091232;28;19908;-70
2023/10/11 01:49:02;;;;;;;;;;;27.20;93.50;;;;;;5100115;28;19924;-67
2023/10/11 01:51:29;;;;;;;;;;;26.80;94.40;;;;;;5109550;28;19923;-70
2023/10/11 01:53:57;;;;;;;;;;;26.90;94.30;;;;;;5110990;28;19930;-69
2023/10/11 01:56:30;;;;;;;;;;;26.90;94.70;;;;;;5110532;28;20002;-73
2023/10/11 01:59:00;;;;;;;;;;;26.80;94.20;;;;;;5107435;28;19912;-68
2023/10/11 02:01:30;;;;;;;;;;;26.90;93.90;;;;;;5110218;28;20391;-68
2023/10/11 02:04:04;;;;;;;;;;;26.60;94.50;;;;;;5110053;28;19998;-72
2023/10/11 02:06:34;;;;;;;;;;;26.80;94.10;;;;;;5111948;28;19908;-74
2023/10/11 02:09:00;;;;;;;;;;;27.20;94.20;;;;;;5093373;28;19920;-70
2023/10/11 02:11:29;;;;;;;;;;;27.30;93.60;;;;;;5112257;28;19915;-72
2023/10/11 02:13:59;;;;;;;;;;;27.40;93.10;;;;;;5111419;28;20296;-71
2023/10/11 02:16:28;;;;;;;;;;;27.60;94.60;;;;;;5110099;28;19994;-69
2023/10/11 02:19:00;;;;;;;;;;;28.10;93.70;;;;;;5108941;28;20396;-70
2023/10/11 02:21:29;;;;;;;;;;;28.00;92.80;;;;;;5111718;28;19958;-72
2023/10/11 02:23:59;;;;;;;;;;;27.80;93.10;;;;;;5114275;28;19908;-71
2023/10/11 02:26:34;;;;;;;;;;;28.00;92.70;;;;;;5095583;28;19973;-73
2023/10/11 02:29:01;;;;;;;;;;;28.20;92.10;;;;;;5096023;28;20065;-73
2023/10/11 02:31:33;;;;;;;;;;;28.40;93.00;;;;;;5116118;28;19998;-73
2023/10/11 02:34:12;;;;;;;;;;;28.60;92.60;;;;;;5115859;28;19916;-75
2023/10/11 02:36:42;;;;;;;;;;;29.20;91.70;;;;;;5115984;28;19930;-73
2023/10/11 02:39:17;;;;;;;;;;;28.90;90.80;;;;;;5115284;28;20046;-71
2023/10/11 02:41:49;;;;;;;;;;;29.30;90.90;;;;;;5115665;28;20379;-70
2023/10/11 02:44:16;;;;;;;;;;;29.50;88.80;;;;;;5115674;28;20008;-71
2023/10/11 02:46:44;;;;;;;;;;;29.70;88.90;;;;;;5115957;28;19914;-72
2023/10/11 02:49:20;;;;;;;;;;;30.30;88.10;;;;;;5102907;28;19983;-72
2023/10/11 02:51:54;;;;;;;;;;;31.20;86.40;;;;;;5095127;28;19908;-73
2023/10/11 02:54:21;;;;;;;;;;;32.50;83.00;;;;;;5109584;28;20326;-71
2023/10/11 02:56:48;;;;;;;;;;;32.90;80.00;;;;;;5115576;28;19947;-72
2023/10/11 02:59:23;;;;;;;;;;;31.80;80.80;;;;;;5102299;28;19915;-69
2023/10/11 03:02:00;;;;;;;;;;;31.30;83.30;;;;;;5095289;28;20390;-70
2023/10/11 03:04:30;;;;;;;;;;;32.30;80.80;;;;;;5099702;28;20368;-73
2023/10/11 03:06:56;;;;;;;;;;;32.50;79.00;;;;;;5115403;28;19911;-70
2023/10/11 03:09:27;;;;;;;;;;;33.20;79.70;;;;;;5115133;28;20362;-71
2023/10/11 03:11:56;;;;;;;;;;;33.00;77.10;;;;;;5115507;28;20507;-72
2023/10/11 03:14:24;;;;;;;;;;;33.10;76.20;;;;;;5097194;28;20466;-72
2023/10/11 03:16:56;;;;;;;;;;;32.70;77.20;;;;;;5114941;28;19955;-73
2023/10/11 03:19:24;;;;;;;;;;;33.40;75.60;;;;;;5082410;28;19961;-72
2023/10/11 03:21:54;;;;;;;;;;;33.00;75.20;;;;;;5094927;28;20369;-69
2023/10/11 03:24:24;;;;;;;;;;;33.20;74.80;;;;;;5095511;28;19998;-70
2023/10/11 03:26:51;;;;;;;;;;;33.00;75.20;;;;;;5095285;28;19962;-72
2023/10/11 03:29:18;;;;;;;;;;;32.90;75.30;;;;;;5108098;28;19911;-70
2023/10/11 03:31:45;;;;;;;;;;;32.00;75.60;;;;;;5112781;28;20964;-68
2023/10/11 03:34:11;;;;;;;;;;;31.90;78.40;;;;;;5104911;28;20275;-72
2023/10/11 03:37:18;;;;;;;;;;;31.60;76.80;;;;;;5096773;28;20006;-71
2023/10/11 03:44:45;;;;;;;;;;;32.40;74.90;;;;;;5111540;28;19912;-72
2023/10/11 03:47:18;;;;;;;;;;;33.10;74.70;;;;;;5105128;28;19919;-71
2023/10/11 03:49:51;;;;;;;;;;;33.20;73.70;;;;;;5113872;28;19951;-69
2023/10/11 03:52:30;;;;;;;;;;;33.00;73.30;;;;;;5108997;28;19916;-69
2023/10/11 03:57:35;;;;;;;;;;;33.40;72.60;;;;;;5109778;28;19919;-69
2023/10/11 04:00:16;;;;;;;;;;;34.00;71.70;;;;;;5112352;28;20426;-69
2023/10/11 04:02:43;;;;;;;;;;;35.60;69.30;;;;;;5113023;28;19912;-72
2023/10/11 04:05:09;;;;;;;;;;;35.90;67.50;;;;;;5113967;28;19911;-70
2023/10/11 04:07:36;;;;;;;;;;;35.70;68.50;;;;;;5108719;28;19912;-68
2023/10/11 04:10:09;;;;;;;;;;;36.00;68.00;;;;;;5102871;28;19919;-69
2023/10/11 04:12:42;;;;;;;;;;;37.00;66.20;;;;;;5108105;28;19915;-70
2023/10/11 04:15:24;;;;;;;;;;;35.90;65.80;;;;;;5098840;28;19920;-73
2023/10/11 04:17:55;;;;;;;;;;;35.60;66.60;;;;;;5093907;28;19958;-70
2023/10/11 04:20:31;;;;;;;;;;;36.10;65.30;;;;;;5112401;28;20362;-66
2023/10/11 04:23:14;;;;;;;;;;;35.90;66.50;;;;;;5109000;28;19959;-66
2023/10/11 04:25:43;;;;;;;;;;;35.30;65.50;;;;;;5099578;28;19920;-67
2023/10/11 04:28:12;;;;;;;;;;;35.10;66.00;;;;;;5106824;28;19912;-68
2023/10/11 04:30:44;;;;;;;;;;;35.10;65.80;;;;;;5102432;28;20021;-67
2023/10/11 04:33:22;;;;;;;;;;;35.30;67.60;;;;;;5103141;28;19924;-65
2023/10/11 04:35:58;;;;;;;;;;;35.10;66.20;;;;;;5113598;27;19960;-69
2023/10/11 04:38:27;;;;;;;;;;;35.70;66.40;;;;;;5113444;27;19908;-70
2023/10/11 04:40:54;;;;;;;;;;;36.80;64.50;;;;;;5112318;28;19912;-69
2023/10/11 04:43:21;;;;;;;;;;;37.40;64.40;;;;;;5109061;28;19912;-71
2023/10/11 04:45:50;;;;;;;;;;;37.60;63.30;;;;;;5104104;28;20352;-72
2023/10/11 04:48:29;;;;;;;;;;;37.10;64.00;;;;;;5092345;28;19974;-72
2023/10/11 04:51:39;;;;;;;;;;;37.30;63.90;;;;;;5095005;28;20015;-65
2023/10/11 04:53:57;;;;;;;;;;;36.80;64.00;;;;;;5103805;27;19928;-68
2023/10/11 04:59:12;;;;;;;;;;;36.00;65.40;;;;;;5100192;27;19922;-67
2023/10/11 05:04:15;;;;;;;;;;;37.90;63.40;;;;;;5109776;27;19930;-73
2023/10/11 05:06:43;;;;;;;;;;;37.60;63.10;;;;;;5113531;27;19912;-70
2023/10/11 05:09:29;;;;;;;;;;;36.90;62.80;;;;;;5104409;27;19939;-69
2023/10/11 05:12:19;;;;;;;;;;;36.70;63.20;;;;;;5115002;27;19912;-70
2023/10/11 05:19:57;;;;;;;;;;;36.20;63.80;;;;;;5119302;27;20018;-68
2023/10/11 05:22:30;;;;;;;;;;;36.30;64.30;;;;;;5103735;27;19923;-69
2023/10/11 05:27:47;;;;;;;;;;;35.60;64.40;;;;;;5118230;27;19920;-72
2023/10/11 05:30:28;;;;;;;;;;;35.40;65.10;;;;;;5109177;27;19916;-68
2023/10/11 05:52:07;;;;;;;;;;;34.80;66.60;;;;;;5106310;28;20322;-71
2023/10/11 05:54:37;;;;;;;;;;;33.90;68.40;;;;;;5104894;28;19997;-68
2023/10/11 05:57:06;;;;;;;;;;;33.70;68.90;;;;;;5108449;27;19973;-72
2023/10/11 05:59:37;;;;;;;;;;;33.80;67.70;;;;;;5108527;28;20391;-70
2023/10/11 06:02:07;;;;;;;;;;;32.90;69.60;;;;;;5116801;27;19937;-70
2023/10/11 06:04:39;;;;;;;;;;;33.00;70.20;;;;;;5113949;28;20060;-72
2023/10/11 06:07:06;;;;;;;;;;;33.90;68.50;;;;;;5093927;28;19918;-67
2023/10/11 06:09:39;;;;;;;;;;;33.30;69.80;;;;;;5112775;28;19912;-70
2023/10/11 06:12:22;;;;;;;;;;;33.10;69.60;;;;;;5117276;27;20366;-72
2023/10/11 06:14:56;;;;;;;;;;;33.80;68.70;;;;;;5112757;28;19919;-68
2023/10/11 06:18:05;;;;;;;;;;;32.80;70.40;;;;;;5110651;27;19912;-67
2023/10/11 06:20:28;;;;;;;;;;;33.00;69.40;;;;;;5107952;28;19908;-69
2023/10/11 06:22:55;;;;;;;;;;;32.00;71.10;;;;;;5114170;27;19919;-69
2023/10/11 06:28:13;;;;;;;;;;;32.80;69.40;;;;;;5113422;27;20042;-74
2023/10/11 06:30:42;;;;;;;;;;;33.20;69.80;;;;;;5112392;28;19942;-72
2023/10/11 06:33:12;;;;;;;;;;;33.50;68.70;;;;;;5091411;28;19922;-72
2023/10/11 06:35:49;;;;;;;;;;;32.40;69.60;;;;;;5111024;28;20006;-67
2023/10/11 06:38:15;;;;;;;;;;;32.20;71.20;;;;;;5113123;27;19912;-71
2023/10/11 06:43:34;;;;;;;;;;;31.50;72.20;;;;;;5086685;28;20392;-66
2023/10/11 06:46:01;;;;;;;;;;;31.00;72.80;;;;;;5116727;28;19915;-73
2023/10/11 06:48:29;;;;;;;;;;;30.80;73.80;;;;;;5116453;27;19968;-71
2023/10/11 06:50:56;;;;;;;;;;;30.70;73.00;;;;;;5108760;28;19951;-66
2023/10/11 06:53:22;;;;;;;;;;;30.10;75.10;;;;;;5117421;27;19920;-72
2023/10/11 06:55:50;;;;;;;;;;;29.30;77.30;;;;;;5111890;28;19933;-66
2023/10/11 06:58:19;;;;;;;;;;;29.50;75.80;;;;;;5118749;27;19916;-70
2023/10/11 07:00:46;;;;;;;;;;;29.90;75.40;;;;;;5118072;28;19908;-68
2023/10/11 07:05:56;;;;;;;;;;;28.90;76.70;;;;;;5097494;28;19908;-72
2023/10/11 07:08:34;;;;;;;;;;;28.30;78.60;;;;;;5106222;27;20010;-72
2023/10/11 07:11:25;;;;;;;;;;;28.30;79.00;;;;;;5114641;28;20283;-73
2023/10/11 07:14:00;;;;;;;;;;;27.90;78.80;;;;;;5112835;28;19920;-74
2023/10/11 07:16:29;;;;;;;;;;;27.10;81.10;;;;;;5093831;28;19920;-68
2023/10/11 07:18:57;;;;;;;;;;;26.60;83.30;;;;;;5111031;27;19912;-70
2023/10/11 07:21:40;;;;;;;;;;;26.20;83.80;;;;;;5115667;28;19912;-71
2023/10/11 07:24:19;;;;;;;;;;;25.60;85.90;;;;;;5111087;28;19955;-71
2023/10/11 07:29:13;;;;;;;;;;;24.40;90.20;;;;;;5112495;28;20387;-68
2023/10/11 07:31:50;;;;;;;;;;;24.10;90.70;;;;;;5105963;28;19918;-72
2023/10/11 07:34:18;;;;;;;;;;;23.50;91.80;;;;;;5107038;28;19920;-70
2023/10/11 07:36:45;;;;;;;;;;;23.20;93.00;;;;;;5107141;28;19911;-69
2023/10/11 07:39:25;;;;;;;;;;;23.00;93.60;;;;;;5090828;28;19916;-68
2023/10/11 07:42:00;;;;;;;;;;;22.70;94.70;;;;;;5093972;28;19955;-71
2023/10/11 07:44:29;;;;;;;;;;;22.70;95.70;;;;;;5099901;28;19918;-71
2023/10/11 07:46:55;;;;;;;;;;;22.70;96.10;;;;;;5093739;28;19927;-70
2023/10/11 07:49:25;;;;;;;;;;;22.50;96.80;;;;;;5112374;27;19972;-71
2023/10/11 07:52:01;;;;;;;;;;;22.40;97.70;;;;;;5105298;28;19935;-70
2023/10/11 07:54:28;;;;;;;;;;;22.30;98.70;;;;;;5094268;28;19916;-71
2023/10/11 07:57:00;;;;;;;;;;;22.20;99.50;;;;;;5104794;28;19919;-71
2023/10/11 07:59:27;;;;;;;;;;;22.10;99.90;;;;;;5114291;28;19907;-71
2023/10/11 08:01:56;;;;;;;;;;;22.00;99.90;;;;;;5110638;28;20517;-71
2023/10/11 08:04:27;;;;;;;;;;;21.90;99.90;;;;;;5092674;28;19951;-71
2023/10/11 08:07:06;;;;;;;;;;;21.80;99.90;;;;;;5098627;28;19998;-70
2023/10/11 08:09:45;;;;;;;;;;;21.80;99.90;;;;;;5093642;28;19953;-71
2023/10/11 08:12:16;;;;;;;;;;;21.70;99.90;;;;;;5105977;28;19916;-71
2023/10/11 08:14:46;;;;;;;;;;;21.60;99.90;;;;;;5112459;28;20304;-71
2023/10/11 08:17:16;;;;;;;;;;;21.60;99.90;;;;;;5111750;28;19912;-72
2023/10/11 08:19:44;;;;;;;;;;;21.60;99.90;;;;;;5112551;28;19912;-71
2023/10/11 08:22:17;;;;;;;;;;;21.60;99.90;;;;;;5111085;27;20391;-71
2023/10/11 08:24:49;;;;;;;;;;;21.60;99.90;;;;;;5101988;28;20344;-72
2023/10/11 08:27:28;;;;;;;;;;;21.50;99.90;;;;;;5104954;28;19912;-72
2023/10/11 08:30:07;;;;;;;;;;;21.40;99.90;;;;;;5093365;28;19961;-71
2023/10/11 08:32:37;;;;;;;;;;;21.40;99.90;;;;;;5121776;27;19915;-70
2023/10/11 08:35:16;;;;;;;;;;;21.30;99.90;;;;;;5096358;27;20373;-72
2023/10/11 08:37:52;;;;;;;;;;;21.30;99.90;;;;;;5107840;27;19922;-71
2023/10/11 08:40:34;;;;;;;;;;;21.20;99.90;;;;;;5104896;28;20035;-72
2023/10/11 08:43:02;;;;;;;;;;;21.10;99.90;;;;;;5113006;28;19980;-70
2023/10/11 08:45:35;;;;;;;;;;;21.00;99.90;;;;;;5098000;28;19908;-69
2023/10/11 08:48:06;;;;;;;;;;;20.90;99.90;;;;;;5092618;28;20300;-67
2023/10/11 08:50:35;;;;;;;;;;;20.90;99.90;;;;;;5112758;28;19958;-69
2023/10/11 08:53:08;;;;;;;;;;;20.80;99.90;;;;;;5112813;28;19927;-67
2023/10/11 08:55:42;;;;;;;;;;;20.80;99.90;;;;;;5096474;28;19908;-69
2023/10/11 08:58:42;;;;;;;;;;;20.80;99.90;;;;;;5098714;28;19938;-70
2023/10/11 09:01:01;;;;;;;;;;;20.80;99.90;;;;;;5088612;28;19932;-70
2023/10/11 09:03:40;;;;;;;;;;;20.90;99.90;;;;;;5111989;28;20300;-69
2023/10/11 09:06:20;;;;;;;;;;;20.90;99.90;;;;;;5092290;28;19961;-70
2023/10/11 09:08:47;;;;;;;;;;;20.80;99.90;;;;;;5104305;28;19965;-71
2023/10/11 09:11:36;;;;;;;;;;;20.70;99.90;;;;;;5103502;27;20023;-71
2023/10/11 09:14:24;;;;;;;;;;;20.60;99.90;;;;;;5126054;27;19916;-68
2023/10/11 09:16:51;;;;;;;;;;;20.60;99.90;;;;;;5098316;28;19918;-68
2023/10/11 09:19:21;;;;;;;;;;;20.70;99.90;;;;;;5112528;28;19908;-68
2023/10/11 09:22:18;;;;;;;;;;;20.60;99.90;;;;;;5103120;28;19911;-68
2023/10/11 09:24:44;;;;;;;;;;;20.60;99.90;;;;;;5102751;28;19916;-67
2023/10/11 09:29:46;;;;;;;;;;;20.50;99.90;;;;;;5091751;28;19919;-69
2023/10/11 09:32:13;;;;;;;;;;;20.50;99.90;;;;;;5095309;27;19926;-69
2023/10/11 09:34:43;;;;;;;;;;;20.50;99.90;;;;;;5111800;28;20007;-70
2023/10/11 09:37:11;;;;;;;;;;;20.50;99.90;;;;;;5111288;28;19915;-67
2023/10/11 09:39:38;;;;;;;;;;;20.50;99.90;;;;;;5094350;28;20352;-69
2023/10/11 09:42:05;;;;;;;;;;;20.40;99.90;;;;;;5100657;28;20391;-67
2023/10/11 09:44:39;;;;;;;;;;;20.50;99.90;;;;;;5102966;28;20256;-67
2023/10/11 09:47:16;;;;;;;;;;;20.50;99.90;;;;;;5111426;28;19920;-69
2023/10/11 09:49:44;;;;;;;;;;;20.50;99.90;;;;;;5111943;28;19912;-70
2023/10/11 09:52:11;;;;;;;;;;;20.50;99.90;;;;;;5111827;28;19919;-69
2023/10/11 09:54:39;;;;;;;;;;;20.50;99.90;;;;;;5112122;28;20360;-66
2023/10/11 09:57:06;;;;;;;;;;;20.40;99.90;;;;;;5112771;28;19919;-70
2023/10/11 09:59:43;;;;;;;;;;;20.40;99.90;;;;;;5112253;28;19911;-69
2023/10/11 10:02:14;;;;;;;;;;;20.40;99.90;;;;;;5111934;28;19908;-68
2023/10/11 10:04:52;;;;;;;;;;;20.40;99.90;;;;;;5112189;28;19935;-68
2023/10/11 10:07:26;;;;;;;;;;;20.40;99.90;;;;;;5112357;28;20364;-71
2023/10/11 10:09:54;;;;;;;;;;;20.30;99.90;;;;;;5111945;28;20006;-71
2023/10/11 10:12:22;;;;;;;;;;;20.20;99.90;;;;;;5111965;28;20272;-70
2023/10/11 10:15:04;;;;;;;;;;;20.20;99.90;;;;;;5104236;28;20000;-70
2023/10/11 10:17:31;;;;;;;;;;;20.20;99.90;;;;;;5111206;28;19912;-70
2023/10/11 10:20:17;;;;;;;;;;;20.20;99.90;;;;;;5111780;28;19930;-71
2023/10/11 10:23:04;;;;;;;;;;;20.20;99.90;;;;;;5112024;28;19957;-71
2023/10/11 10:25:30;;;;;;;;;;;20.20;99.90;;;;;;5111581;28;20555;-72
2023/10/11 10:27:57;;;;;;;;;;;20.20;99.90;;;;;;5110074;28;20373;-69
2023/10/11 10:30:27;;;;;;;;;;;20.20;99.90;;;;;;5111625;28;19920;-69
2023/10/11 10:33:12;;;;;;;;;;;20.20;99.90;;;;;;5111730;28;19927;-68
2023/10/11 10:35:39;;;;;;;;;;;20.20;99.90;;;;;;5107367;28;19920;-68
2023/10/11 10:38:09;;;;;;;;;;;20.30;99.90;;;;;;5091655;28;19923;-68
2023/10/11 10:40:45;;;;;;;;;;;20.30;99.90;;;;;;5091193;28;19912;-69
2023/10/11 10:43:24;;;;;;;;;;;20.30;99.90;;;;;;5094550;28;19909;-71
2023/10/11 10:45:51;;;;;;;;;;;20.30;99.90;;;;;;5113868;28;19914;-70
2023/10/11 10:48:23;;;;;;;;;;;20.30;99.90;;;;;;5115614;28;19919;-68
2023/10/11 10:50:51;;;;;;;;;;;20.30;99.90;;;;;;5112965;28;19915;-68
2023/10/11 10:53:17;;;;;;;;;;;20.20;99.90;;;;;;5095769;28;20229;-69
2023/10/11 10:55:45;;;;;;;;;;;20.20;99.90;;;;;;5104592;28;19973;-69
2023/10/11 10:58:18;;;;;;;;;;;20.10;99.90;;;;;;5095373;28;19962;-69
2023/10/11 11:00:47;;;;;;;;;;;20.10;99.90;;;;;;5094842;28;19947;-70
2023/10/11 11:03:20;;;;;;;;;;;20.10;99.90;;;;;;5094989;28;20048;-67
2023/10/11 11:05:56;;;;;;;;;;;20.20;99.90;;;;;;5112160;28;19915;-68
2023/10/11 11:08:27;;;;;;;;;;;20.10;99.90;;;;;;5115626;28;20003;-68
2023/10/11 11:10:59;;;;;;;;;;;20.10;99.90;;;;;;5114777;28;19908;-68
2023/10/11 11:13:29;;;;;;;;;;;20.10;99.90;;;;;;5111554;28;20368;-70
2023/10/11 11:15:56;;;;;;;;;;;20.10;99.90;;;;;;5108909;28;19918;-70
2023/10/11 11:18:33;;;;;;;;;;;20.10;99.90;;;;;;5111176;28;19920;-70
2023/10/11 11:21:17;;;;;;;;;;;20.10;99.90;;;;;;5107810;28;19912;-70
2023/10/11 11:23:44;;;;;;;;;;;20.20;99.90;;;;;;5112193;28;20015;-72
2023/10/11 11:26:17;;;;;;;;;;;20.10;99.90;;;;;;5111625;28;19919;-71
2023/10/11 11:28:45;;;;;;;;;;;20.10;99.90;;;;;;5100999;28;19908;-72
2023/10/11 11:31:30;;;;;;;;;;;19.90;99.90;;;;;;5100398;28;20291;-67
2023/10/11 11:34:11;;;;;;;;;;;20.00;99.90;;;;;;5113948;28;19924;-70
2023/10/11 11:36:40;;;;;;;;;;;20.00;99.90;;;;;;5111847;28;19907;-68
2023/10/11 11:41:58;;;;;;;;;;;19.80;99.90;;;;;;5109011;28;19966;-69
2023/10/11 11:44:27;;;;;;;;;;;19.70;99.90;;;;;;5104698;28;20003;-71
2023/10/11 11:46:54;;;;;;;;;;;19.70;99.90;;;;;;5109818;28;20280;-71
2023/10/11 11:49:24;;;;;;;;;;;19.70;99.90;;;;;;5112824;28;20585;-69
2023/10/11 11:51:52;;;;;;;;;;;19.70;99.90;;;;;;5111128;28;19922;-67
2023/10/11 11:54:19;;;;;;;;;;;19.60;99.90;;;;;;5113253;28;19932;-68
2023/10/11 11:56:46;;;;;;;;;;;19.60;99.90;;;;;;5110815;28;20354;-70
2023/10/11 11:59:19;;;;;;;;;;;19.60;99.90;;;;;;5111435;28;19911;-69
2023/10/11 12:01:53;;;;;;;;;;;19.60;99.90;;;;;;5108969;28;20000;-69
2023/10/11 12:04:21;;;;;;;;;;;19.50;99.90;;;;;;5113065;28;20319;-69
2023/10/11 12:06:48;;;;;;;;;;;19.40;99.90;;;;;;5110730;28;19911;-66
2023/10/11 12:09:21;;;;;;;;;;;19.40;99.90;;;;;;5113332;28;20406;-68
2023/10/11 12:11:53;;;;;;;;;;;19.40;99.90;;;;;;5110773;28;19907;-70
2023/10/11 12:14:23;;;;;;;;;;;19.40;99.90;;;;;;5109708;28;19942;-69
2023/10/11 12:16:50;;;;;;;;;;;19.20;99.90;;;;;;5108624;28;20300;-67
2023/10/11 12:19:17;;;;;;;;;;;19.20;99.90;;;;;;5094099;28;19951;-69
2023/10/11 12:21:43;;;;;;;;;;;19.10;99.90;;;;;;5112562;28;20356;-69
2023/10/11 12:24:11;;;;;;;;;;;19.10;99.90;;;;;;5112551;28;19907;-70
2023/10/11 12:26:41;;;;;;;;;;;19.10;99.90;;;;;;5111922;28;19969;-70
2023/10/11 12:29:14;;;;;;;;;;;19.10;99.90;;;;;;5110202;28;19908;-69
2023/10/11 12:31:42;;;;;;;;;;;19.10;99.90;;;;;;5112410;28;19955;-67
2023/10/11 12:34:09;;;;;;;;;;;19.10;99.90;;;;;;5112811;28;19968;-68
2023/10/11 12:36:38;;;;;;;;;;;19.00;99.90;;;;;;5112424;28;19912;-68
2023/10/11 12:39:06;;;;;;;;;;;19.10;99.90;;;;;;5112342;28;20435;-68
2023/10/11 12:41:33;;;;;;;;;;;19.00;99.90;;;;;;5112744;28;20318;-70
2023/10/11 12:44:02;;;;;;;;;;;19.00;99.90;;;;;;5109604;28;19918;-70
2023/10/11 12:46:29;;;;;;;;;;;19.00;99.90;;;;;;5111194;28;19975;-70
2023/10/11 12:48:56;;;;;;;;;;;18.90;99.90;;;;;;5111654;28;19928;-70
2023/10/11 12:51:23;;;;;;;;;;;18.90;99.90;;;;;;5111962;28;19956;-68
2023/10/11 12:53:54;;;;;;;;;;;18.90;99.90;;;;;;5093261;28;19927;-71
2023/10/11 12:56:22;;;;;;;;;;;18.90;99.90;;;;;;5112151;28;19911;-68
2023/10/11 12:58:50;;;;;;;;;;;18.80;99.90;;;;;;5109814;28;19947;-70
2023/10/11 13:01:26;;;;;;;;;;;18.80;99.90;;;;;;5109236;28;19912;-66
2023/10/11 13:04:06;;;;;;;;;;;18.80;99.90;;;;;;5110144;28;19926;-67
2023/10/11 13:06:37;;;;;;;;;;;18.90;99.90;;;;;;5110004;28;19933;-67
2023/10/11 13:09:13;;;;;;;;;;;18.90;99.90;;;;;;5093711;28;20419;-71
2023/10/11 13:11:44;;;;;;;;;;;18.90;99.90;;;;;;5111907;28;19991;-71
2023/10/11 13:14:20;;;;;;;;;;;18.90;99.90;;;;;;5108952;28;19920;-71
2023/10/11 13:16:48;;;;;;;;;;;18.90;99.90;;;;;;5109551;28;19912;-71
2023/10/11 13:19:17;;;;;;;;;;;18.80;99.90;;;;;;5112130;28;19943;-71
2023/10/11 13:21:47;;;;;;;;;;;18.90;99.90;;;;;;5111100;28;20006;-70
2023/10/11 13:24:16;;;;;;;;;;;18.90;99.90;;;;;;5112253;28;20295;-70
2023/10/11 13:26:43;;;;;;;;;;;18.80;99.90;;;;;;5110855;28;19915;-67
2023/10/11 13:29:16;;;;;;;;;;;18.70;99.90;;;;;;5112190;28;19907;-69
2023/10/11 13:31:47;;;;;;;;;;;18.80;99.90;;;;;;5112654;28;19934;-69
2023/10/11 13:34:17;;;;;;;;;;;18.70;99.90;;;;;;5112513;28;20300;-70
2023/10/11 13:36:44;;;;;;;;;;;18.60;99.90;;;;;;5113247;28;19908;-71
2023/10/11 13:39:26;;;;;;;;;;;18.60;99.90;;;;;;5095983;28;19922;-71
2023/10/11 13:42:09;;;;;;;;;;;18.60;99.90;;;;;;5092277;28;20275;-71
2023/10/11 13:44:38;;;;;;;;;;;18.60;99.90;;;;;;5092765;28;19943;-72
2023/10/11 13:47:05;;;;;;;;;;;18.60;99.90;;;;;;5092529;28;19962;-69
2023/10/11 13:49:37;;;;;;;;;;;18.60;99.90;;;;;;5075654;28;20327;-71
2023/10/11 13:52:04;;;;;;;;;;;18.50;99.90;;;;;;5092350;28;19919;-70
2023/10/11 13:54:49;;;;;;;;;;;18.60;99.90;;;;;;5092288;28;19979;-70
2023/10/11 13:57:18;;;;;;;;;;;18.50;99.90;;;;;;5092235;28;19912;-71
2023/10/11 13:59:45;;;;;;;;;;;18.50;99.90;;;;;;5104353;28;19911;-71
2023/10/11 14:04:49;;;;;;;;;;;18.50;99.90;;;;;;5112849;28;19980;-67
2023/10/11 14:07:34;;;;;;;;;;;18.50;99.90;;;;;;5112951;28;20427;-69
2023/10/11 14:10:27;;;;;;;;;;;18.50;99.90;;;;;;5095259;28;19912;-68
2023/10/11 14:13:01;;;;;;;;;;;18.50;99.90;;;;;;5092339;28;19912;-67
2023/10/11 14:15:29;;;;;;;;;;;18.50;99.90;;;;;;5092237;28;19912;-68
2023/10/11 14:17:56;;;;;;;;;;;18.40;99.90;;;;;;5113760;28;20006;-65
2023/10/11 14:20:24;;;;;;;;;;;18.40;99.90;;;;;;5098756;28;19918;-66
2023/10/11 14:22:50;;;;;;;;;;;18.40;99.90;;;;;;5096261;28;20007;-67
2023/10/11 14:25:20;;;;;;;;;;;18.40;99.90;;;;;;5096229;28;19940;-68
2023/10/11 14:27:47;;;;;;;;;;;18.40;99.90;;;;;;5096321;28;19909;-68
2023/10/11 14:30:14;;;;;;;;;;;18.30;99.90;;;;;;5096245;28;19909;-69
2023/10/11 14:32:41;;;;;;;;;;;18.30;99.90;;;;;;5096116;28;20302;-67
2023/10/11 14:35:09;;;;;;;;;;;18.30;99.90;;;;;;5096114;28;19923;-68
2023/10/11 14:37:36;;;;;;;;;;;18.40;99.90;;;;;;5096370;28;20349;-71
2023/10/11 14:40:14;;;;;;;;;;;18.30;99.90;;;;;;5096413;28;19908;-69
2023/10/11 14:42:41;;;;;;;;;;;18.30;99.90;;;;;;5097233;28;19912;-69
2023/10/11 14:45:11;;;;;;;;;;;18.30;99.90;;;;;;5096076;28;19947;-70
2023/10/11 14:47:38;;;;;;;;;;;18.30;99.90;;;;;;5095757;28;19939;-68
2023/10/11 14:50:11;;;;;;;;;;;18.30;99.90;;;;;;5107265;28;19912;-69
2023/10/11 14:52:40;;;;;;;;;;;18.30;99.90;;;;;;5116397;28;19908;-69
2023/10/11 14:55:16;;;;;;;;;;;18.20;99.90;;;;;;5115498;28;20422;-68
2023/10/11 14:57:52;;;;;;;;;;;18.20;99.90;;;;;;5115845;28;20378;-72
2023/10/11 15:00:22;;;;;;;;;;;18.20;99.90;;;;;;5097911;28;20280;-70
2023/10/11 15:02:52;;;;;;;;;;;18.20;99.90;;;;;;5116249;28;19912;-69
2023/10/11 15:05:19;;;;;;;;;;;18.20;99.90;;;;;;5096764;28;19916;-70
2023/10/11 15:07:47;;;;;;;;;;;18.20;99.90;;;;;;5105378;28;19972;-72
2023/10/11 15:10:14;;;;;;;;;;;18.10;99.90;;;;;;5115069;28;20245;-69
2023/10/11 15:12:41;;;;;;;;;;;18.10;99.90;;;;;;5095213;28;20424;-70
2023/10/11 15:15:11;;;;;;;;;;;18.10;99.90;;;;;;5095752;28;19916;-70
2023/10/11 15:17:38;;;;;;;;;;;18.00;99.90;;;;;;5096073;28;19908;-68
2023/10/11 15:20:07;;;;;;;;;;;18.00;99.90;;;;;;5106875;28;20371;-72
2023/10/11 15:22:34;;;;;;;;;;;18.00;99.90;;;;;;5115816;28;19965;-70
2023/10/11 15:25:01;;;;;;;;;;;17.90;99.90;;;;;;5097806;28;19908;-71
2023/10/11 15:27:29;;;;;;;;;;;18.00;99.90;;;;;;5104936;28;19908;-69
2023/10/11 15:29:56;;;;;;;;;;;17.90;99.90;;;;;;5102500;28;19912;-69
2023/10/11 15:32:23;;;;;;;;;;;17.90;99.90;;;;;;5102906;28;19915;-71
2023/10/11 15:34:52;;;;;;;;;;;17.80;99.90;;;;;;5095289;28;19995;-70
2023/10/11 15:37:19;;;;;;;;;;;17.80;99.90;;;;;;5095109;28;19916;-70
2023/10/11 15:39:46;;;;;;;;;;;17.70;99.90;;;;;;5094972;28;19908;-70
2023/10/11 15:42:13;;;;;;;;;;;17.70;99.90;;;;;;5110723;28;19912;-70
2023/10/11 15:44:39;;;;;;;;;;;17.70;99.90;;;;;;5099584;28;20076;-70
2023/10/11 15:47:06;;;;;;;;;;;17.70;99.90;;;;;;5094896;28;19912;-70